createdAt,value
2022-10-13T00:00:29.314Z,101441.41
2022-10-13T00:02:58.056Z,101434.28
2022-10-13T00:05:24.865Z,101441.16
2022-10-13T00:07:51.751Z,101439.16
2022-10-13T00:10:18.691Z,101433.13
2022-10-13T00:12:45.446Z,101438.16
2022-10-13T00:15:12.352Z,101440.00
2022-10-13T00:17:39.178Z,101438.94
2022-10-13T00:20:06.930Z,101441.31
2022-10-13T00:22:33.834Z,101435.75
2022-10-13T00:25:00.856Z,101435.22
2022-10-13T00:27:27.642Z,101428.50
2022-10-13T00:29:54.427Z,101430.25
2022-10-13T00:32:21.455Z,101431.81
2022-10-13T00:34:48.409Z,101432.44
2022-10-13T00:37:15.245Z,101428.66
2022-10-13T00:39:42.071Z,101422.31
2022-10-13T00:42:12.389Z,101431.13
2022-10-13T00:45:12.770Z,101426.63
2022-10-13T00:47:43.641Z,101421.31
2022-10-13T00:50:12.933Z,101418.94
2022-10-13T00:52:39.952Z,101422.41
2022-10-13T00:55:08.225Z,101416.19
2022-10-13T00:57:35.876Z,101416.09
2022-10-13T01:00:04.775Z,101415.44
2022-10-13T01:02:33.085Z,101415.44
2022-10-13T01:05:00.264Z,101410.16
2022-10-13T01:07:27.343Z,101414.81
2022-10-13T01:09:54.201Z,101415.41
2022-10-13T01:12:23.820Z,101408.66
2022-10-13T01:15:09.451Z,101411.34
2022-10-13T01:17:37.765Z,101406.34
2022-10-13T01:20:26.328Z,101410.59
2022-10-13T01:23:04.992Z,101409.94
2022-10-13T01:25:59.052Z,101407.84
2022-10-13T01:29:01.271Z,101407.00
2022-10-13T01:31:35.498Z,101413.41
2022-10-13T01:34:40.922Z,101413.50
2022-10-13T01:37:16.856Z,101411.69
2022-10-13T01:39:54.291Z,101407.28
2022-10-13T01:42:33.424Z,101413.78
2022-10-13T01:45:01.821Z,101411.97
2022-10-13T01:47:30.907Z,101412.91
2022-10-13T01:49:58.173Z,101415.72
2022-10-13T01:52:28.128Z,101407.69
2022-10-13T01:54:55.134Z,101411.28
2022-10-13T01:57:41.417Z,101417.72
2022-10-13T02:00:11.537Z,101415.19
2022-10-13T02:02:44.665Z,101414.38
2022-10-13T02:05:20.029Z,101409.97
2022-10-13T02:07:53.442Z,101410.84
2022-10-13T02:10:28.797Z,101411.16
2022-10-13T02:13:01.803Z,101411.56
2022-10-13T02:15:35.591Z,101416.06
2022-10-13T02:18:03.214Z,101415.09
2022-10-13T02:20:30.744Z,101420.28
2022-10-13T02:23:01.434Z,101414.06
2022-10-13T02:25:28.907Z,101409.47
2022-10-13T02:27:58.979Z,101411.25
2022-10-13T02:30:28.602Z,101409.47
2022-10-13T02:32:55.555Z,101410.28
2022-10-13T02:35:22.482Z,101406.78
2022-10-13T02:37:49.246Z,101403.34
2022-10-13T02:40:16.075Z,101402.53
2022-10-13T02:42:43.106Z,101397.22
2022-10-13T02:45:10.499Z,101404.25
2022-10-13T02:47:37.295Z,101393.63
2022-10-13T02:50:05.177Z,101402.59
2022-10-13T02:52:31.995Z,101398.03
2022-10-13T02:54:58.836Z,101394.34
2022-10-13T02:57:25.653Z,101398.97
2022-10-13T02:59:52.765Z,101400.03
2022-10-13T03:02:20.355Z,101404.53
2022-10-13T03:04:49.063Z,101408.69
2022-10-13T03:07:16.147Z,101390.41
2022-10-13T03:09:43.434Z,101401.19
2022-10-13T03:12:10.219Z,101403.63
2022-10-13T03:14:37.044Z,101391.69
2022-10-13T03:17:04.232Z,101405.47
2022-10-13T03:19:31.200Z,101405.81
2022-10-13T03:21:57.988Z,101407.44
2022-10-13T03:24:26.005Z,101403.13
2022-10-13T03:26:53.381Z,101393.28
2022-10-13T03:29:20.481Z,101413.84
2022-10-13T03:31:47.304Z,101403.66
2022-10-13T03:34:16.557Z,101401.53
2022-10-13T03:36:43.523Z,101397.69
2022-10-13T03:39:10.373Z,101401.00
2022-10-13T03:41:37.174Z,101395.66
2022-10-13T03:44:04.249Z,101393.78
2022-10-13T03:46:31.977Z,101392.94
2022-10-13T03:48:58.849Z,101371.78
2022-10-13T03:51:25.718Z,101383.00
2022-10-13T03:53:53.388Z,101381.06
2022-10-13T03:56:22.839Z,101376.56
2022-10-13T03:58:54.029Z,101385.56
2022-10-13T04:01:23.228Z,101389.25
2022-10-13T04:03:51.960Z,101386.37
2022-10-13T04:06:18.751Z,101392.94
2022-10-13T04:08:46.063Z,101397.22
2022-10-13T04:11:15.011Z,101396.84
2022-10-13T04:13:42.300Z,101391.78
2022-10-13T04:16:13.893Z,101402.69
2022-10-13T04:18:44.654Z,101385.34
2022-10-13T04:21:14.712Z,101389.59
2022-10-13T04:23:41.634Z,101391.22
2022-10-13T04:26:18.476Z,101384.88
2022-10-13T04:28:47.289Z,101374.34
2022-10-13T04:31:14.392Z,101386.31
2022-10-13T04:33:41.164Z,101395.81
2022-10-13T04:36:10.327Z,101376.91
2022-10-13T04:38:37.321Z,101382.22
2022-10-13T04:41:05.516Z,101382.22
2022-10-13T04:43:33.364Z,101370.69
2022-10-13T04:46:04.890Z,101384.06
2022-10-13T04:48:31.780Z,101375.97
2022-10-13T04:51:02.071Z,101383.94
2022-10-13T04:53:29.564Z,101389.44
2022-10-13T04:56:00.090Z,101390.09
2022-10-13T04:58:26.973Z,101398.12
2022-10-13T05:00:53.824Z,101392.47
2022-10-13T05:03:20.678Z,101387.91
2022-10-13T05:05:47.515Z,101399.66
2022-10-13T05:08:14.397Z,101401.31
2022-10-13T05:10:41.459Z,101403.75
2022-10-13T05:13:08.387Z,101395.31
2022-10-13T05:15:35.228Z,101399.50
2022-10-13T05:18:02.031Z,101398.69
2022-10-13T05:20:28.789Z,101398.12
2022-10-13T05:22:55.636Z,101394.22
2022-10-13T05:25:22.616Z,101396.69
2022-10-13T05:27:49.776Z,101407.41
2022-10-13T05:30:16.624Z,101400.91
2022-10-13T05:32:43.539Z,101400.63
2022-10-13T05:35:10.284Z,101396.13
2022-10-13T05:37:37.292Z,101395.28
2022-10-13T05:40:04.508Z,101407.56
2022-10-13T05:42:31.303Z,101402.78
2022-10-13T05:44:58.160Z,101399.87
2022-10-13T05:47:28.146Z,101399.87
2022-10-13T05:49:55.666Z,101406.13
2022-10-13T05:52:23.952Z,101403.63
2022-10-13T05:54:54.666Z,101409.87
2022-10-13T05:57:44.380Z,101411.34
2022-10-13T06:00:14.581Z,101402.78
2022-10-13T06:02:53.363Z,101415.66
2022-10-13T06:05:22.271Z,101419.38
2022-10-13T06:07:49.578Z,101420.03
2022-10-13T06:10:16.545Z,101425.94
2022-10-13T06:12:43.284Z,101428.25
2022-10-13T06:15:10.658Z,101426.16
2022-10-13T06:17:38.573Z,101422.59
2022-10-13T06:20:06.816Z,101431.81
2022-10-13T06:22:35.072Z,101427.56
2022-10-13T06:25:02.529Z,101434.59
2022-10-13T06:27:29.516Z,101432.72
2022-10-13T06:29:56.322Z,101434.50
2022-10-13T06:32:23.585Z,101431.16
2022-10-13T06:34:50.528Z,101435.25
2022-10-13T06:37:17.512Z,101433.66
2022-10-13T06:39:44.483Z,101426.13
2022-10-13T06:42:11.274Z,101434.38
2022-10-13T06:44:38.336Z,101440.16
2022-10-13T06:47:05.564Z,101440.31
2022-10-13T06:49:32.369Z,101435.09
2022-10-13T06:51:59.243Z,101435.03
2022-10-13T06:54:26.056Z,101438.47
2022-10-13T06:56:52.934Z,101429.38
2022-10-13T06:59:20.136Z,101437.84
2022-10-13T07:01:48.587Z,101434.59
2022-10-13T07:04:15.600Z,101435.28
2022-10-13T07:06:42.435Z,101434.72
2022-10-13T07:09:09.796Z,101431.03
2022-10-13T07:11:36.855Z,101439.41
2022-10-13T07:14:03.730Z,101434.88
2022-10-13T07:16:30.768Z,101437.66
2022-10-13T07:18:58.256Z,101434.34
2022-10-13T07:21:25.076Z,101430.78
2022-10-13T07:23:51.852Z,101435.03
2022-10-13T07:26:18.702Z,101428.75
2022-10-13T07:28:45.774Z,101439.56
2022-10-13T07:31:15.801Z,101439.03
2022-10-13T07:33:44.534Z,101428.53
2022-10-13T07:36:12.077Z,101438.16
2022-10-13T07:38:39.193Z,101435.25
2022-10-13T07:41:07.784Z,101408.06
2022-10-13T07:43:34.853Z,101441.31
2022-10-13T07:46:04.689Z,101433.84
2022-10-13T07:48:31.990Z,101427.53
2022-10-13T07:50:59.192Z,101417.69
2022-10-13T07:53:26.006Z,101417.06
2022-10-13T07:55:52.921Z,101409.22
2022-10-13T07:58:19.737Z,101400.97
2022-10-13T08:00:56.014Z,101398.88
2022-10-13T08:03:22.825Z,101386.22
2022-10-13T08:05:49.718Z,101388.28
2022-10-13T08:08:16.668Z,101384.50
2022-10-13T08:10:43.612Z,101378.28
2022-10-13T08:13:11.426Z,101378.56
2022-10-13T08:15:42.060Z,101376.41
2022-10-13T08:18:09.755Z,101355.72
2022-10-13T08:20:43.383Z,101359.84
2022-10-13T08:23:11.174Z,101368.25
2022-10-13T08:25:39.122Z,101368.75
2022-10-13T08:28:07.029Z,101365.56
2022-10-13T08:30:34.051Z,101371.25
2022-10-13T08:33:01.050Z,101360.44
2022-10-13T08:35:32.498Z,101359.84
2022-10-13T08:38:00.979Z,101363.97
2022-10-13T08:40:27.809Z,101365.25
2022-10-13T08:42:59.514Z,101354.16
2022-10-13T08:45:40.820Z,101342.19
2022-10-13T08:48:19.174Z,101349.22
2022-10-13T08:50:48.726Z,101335.47
2022-10-13T08:53:28.828Z,101330.00
2022-10-13T08:56:01.339Z,101323.88
2022-10-13T08:58:31.489Z,101314.38
2022-10-13T09:00:58.751Z,101306.03
2022-10-13T09:03:29.843Z,101300.06
2022-10-13T09:06:34.230Z,101281.94
2022-10-13T09:09:06.460Z,101278.25
2022-10-13T09:11:36.186Z,101263.91
2022-10-13T09:14:08.795Z,101260.03
2022-10-13T09:16:38.442Z,101242.63
2022-10-13T09:19:31.982Z,101237.00
2022-10-13T09:22:20.274Z,101220.09
2022-10-13T09:24:47.607Z,101225.00
2022-10-13T09:27:17.348Z,101242.94
2022-10-13T09:29:45.512Z,101226.28
2022-10-13T09:32:19.365Z,101231.72
2022-10-13T09:34:47.490Z,101207.03
2022-10-13T09:37:25.567Z,101213.84
2022-10-13T09:40:12.955Z,101227.13
2022-10-13T09:42:40.036Z,101225.19
2022-10-13T09:45:26.473Z,101225.19
2022-10-13T09:47:56.270Z,101221.97
2022-10-13T09:50:34.249Z,101229.03
2022-10-13T09:53:16.154Z,101220.03
2022-10-13T09:55:43.072Z,101209.66
2022-10-13T09:58:16.269Z,101209.87
2022-10-13T10:00:43.777Z,101224.00
2022-10-13T10:03:23.938Z,101210.81
2022-10-13T10:05:56.179Z,101205.56
2022-10-13T10:09:03.128Z,101198.31
2022-10-13T10:11:34.969Z,101204.06
2022-10-13T10:14:28.236Z,101207.41
2022-10-13T10:16:59.531Z,101190.81
2022-10-13T10:19:32.402Z,101199.28
2022-10-13T10:22:16.194Z,101198.94
2022-10-13T10:25:01.965Z,101205.78
2022-10-13T10:27:35.571Z,101195.50
2022-10-13T10:30:18.885Z,101200.47
2022-10-13T10:33:18.465Z,101186.69
2022-10-13T10:36:19.880Z,101204.00
2022-10-13T10:39:03.175Z,101183.88
2022-10-13T10:41:38.944Z,101185.47
2022-10-13T10:44:19.501Z,101191.06
2022-10-13T10:46:48.864Z,101188.91
2022-10-13T10:49:17.888Z,101152.81
2022-10-13T10:51:45.073Z,101168.47
2022-10-13T10:54:23.725Z,101169.84
2022-10-13T10:57:00.941Z,101172.31
2022-10-13T11:00:04.996Z,101140.19
2022-10-13T11:02:47.553Z,101148.00
2022-10-13T11:05:15.342Z,101141.56
2022-10-13T11:07:43.044Z,101124.13
2022-10-13T11:10:18.453Z,101123.25
2022-10-13T11:12:50.797Z,101129.16
2022-10-13T11:15:27.714Z,101125.44
2022-10-13T11:17:54.973Z,101115.94
2022-10-13T11:20:21.704Z,101114.56
2022-10-13T11:23:00.580Z,101107.25
2022-10-13T11:25:44.691Z,101092.94
2022-10-13T11:28:20.852Z,101102.25
2022-10-13T11:31:17.739Z,101089.19
2022-10-13T11:33:45.717Z,101089.28
2022-10-13T11:36:37.367Z,101082.75
2022-10-13T11:39:12.952Z,101073.44
2022-10-13T11:41:55.275Z,101070.34
2022-10-13T11:44:31.174Z,101088.94
2022-10-13T11:47:04.299Z,101074.81
2022-10-13T11:49:57.244Z,101078.91
2022-10-13T11:52:34.868Z,101073.28
2022-10-13T11:55:11.367Z,101068.31
2022-10-13T11:57:38.152Z,101056.00
2022-10-13T12:00:11.329Z,101049.63
2022-10-13T12:02:50.952Z,101043.87
2022-10-13T12:05:26.182Z,101047.56
2022-10-13T12:07:55.343Z,101035.00
2022-10-13T12:10:29.905Z,101057.50
2022-10-13T12:12:57.522Z,101059.28
2022-10-13T12:15:33.961Z,101046.56
2022-10-13T12:18:00.855Z,101043.63
2022-10-13T12:20:30.434Z,101036.72
2022-10-13T12:22:57.379Z,101041.75
2022-10-13T12:25:27.419Z,101050.03
2022-10-13T12:27:56.656Z,101041.47
2022-10-13T12:30:25.471Z,101019.97
2022-10-13T12:32:55.097Z,101036.50
2022-10-13T12:35:30.983Z,101036.63
2022-10-13T12:38:01.874Z,101018.38
2022-10-13T12:40:29.806Z,101014.53
2022-10-13T12:42:56.756Z,101012.94
2022-10-13T12:45:28.191Z,101015.63
2022-10-13T12:47:55.396Z,101008.44
2022-10-13T12:50:28.033Z,101009.44
2022-10-13T12:53:10.014Z,101011.44
2022-10-13T12:55:49.912Z,100984.09
2022-10-13T12:58:23.329Z,100989.50
2022-10-13T13:01:27.134Z,100981.09
2022-10-13T13:04:02.318Z,101009.28
2022-10-13T13:06:32.592Z,100992.63
2022-10-13T13:09:20.953Z,100967.91
2022-10-13T13:11:48.393Z,100993.00
2022-10-13T13:14:36.569Z,100993.16
2022-10-13T13:17:17.372Z,100978.50
2022-10-13T13:19:50.179Z,100993.56
2022-10-13T13:22:17.599Z,100982.97
2022-10-13T13:24:44.999Z,100993.97
2022-10-13T13:27:27.465Z,100990.38
2022-10-13T13:29:55.847Z,100985.22
2022-10-13T13:32:25.089Z,100968.22
2022-10-13T13:34:52.182Z,100973.53
2022-10-13T13:37:31.102Z,100968.66
2022-10-13T13:39:58.780Z,100970.09
2022-10-13T13:42:27.633Z,100972.53
2022-10-13T13:44:54.735Z,100970.81
2022-10-13T13:47:26.250Z,100982.13
2022-10-13T13:49:54.659Z,100968.66
2022-10-13T13:52:22.182Z,100974.25
2022-10-13T13:54:50.698Z,100962.37
2022-10-13T13:57:18.556Z,100971.66
2022-10-13T13:59:46.544Z,100963.91
2022-10-13T14:02:19.745Z,100969.66
2022-10-13T14:04:46.894Z,100973.38
2022-10-13T14:07:13.976Z,100971.34
2022-10-13T14:09:41.676Z,100976.09
2022-10-13T14:12:09.263Z,100966.91
2022-10-13T14:14:36.206Z,100969.78
2022-10-13T14:17:06.263Z,100964.88
2022-10-13T14:19:33.380Z,100981.63
2022-10-13T14:22:03.718Z,100974.88
2022-10-13T14:24:34.083Z,100978.00
2022-10-13T14:27:00.904Z,100987.84
2022-10-13T14:29:27.723Z,100979.25
2022-10-13T14:31:54.525Z,100986.13
2022-10-13T14:34:21.686Z,100999.09
2022-10-13T14:36:48.472Z,101000.16
2022-10-13T14:39:15.269Z,101001.16
2022-10-13T14:41:42.113Z,100996.13
2022-10-13T14:44:11.303Z,101005.56
2022-10-13T14:46:38.103Z,101010.06
2022-10-13T14:49:04.947Z,101002.34
2022-10-13T14:51:32.349Z,101006.44
2022-10-13T14:54:01.659Z,101014.81
2022-10-13T14:56:32.774Z,101015.47
2022-10-13T14:59:05.039Z,101021.44
2022-10-13T15:01:33.413Z,101024.06
2022-10-13T15:04:01.322Z,101020.28
2022-10-13T15:06:28.324Z,101031.31
2022-10-13T15:08:55.154Z,101033.53
2022-10-13T15:11:22.491Z,101032.19
2022-10-13T15:13:49.269Z,101036.66
2022-10-13T15:16:28.483Z,101032.75
2022-10-13T15:18:56.012Z,101043.34
2022-10-13T15:21:23.628Z,101046.94
2022-10-13T15:23:50.498Z,101054.22
2022-10-13T15:26:19.129Z,101057.69
2022-10-13T15:28:48.431Z,101058.59
2022-10-13T15:31:16.983Z,101068.44
2022-10-13T15:33:48.706Z,101068.41
2022-10-13T15:36:15.761Z,101076.63
2022-10-13T15:38:42.581Z,101066.12
2022-10-13T15:41:10.399Z,101074.34
2022-10-13T15:43:37.224Z,101068.56
2022-10-13T15:46:11.492Z,101078.50
2022-10-13T15:48:39.068Z,101076.50
2022-10-13T15:51:11.484Z,101079.16
2022-10-13T15:53:38.255Z,101082.56
2022-10-13T15:56:05.253Z,101077.09
2022-10-13T15:58:32.089Z,101078.63
2022-10-13T16:01:00.335Z,101083.63
2022-10-13T16:03:29.820Z,101084.16
2022-10-13T16:05:56.882Z,101089.50
2022-10-13T16:08:23.742Z,101081.22
2022-10-13T16:10:50.491Z,101078.34
2022-10-13T16:13:17.412Z,101078.88
2022-10-13T16:15:44.238Z,101083.97
2022-10-13T16:18:11.052Z,101083.78
2022-10-13T16:20:39.388Z,101091.56
2022-10-13T16:23:06.210Z,101085.94
2022-10-13T16:25:33.013Z,101076.03
2022-10-13T16:28:00.772Z,101081.09
2022-10-13T16:30:30.371Z,101084.63
2022-10-13T16:32:58.097Z,101081.56
2022-10-13T16:35:25.251Z,101073.56
2022-10-13T16:37:52.129Z,101077.34
2022-10-13T16:40:18.915Z,101077.87
2022-10-13T16:42:45.877Z,101083.91
2022-10-13T16:45:13.240Z,101080.09
2022-10-13T16:47:40.103Z,101088.50
2022-10-13T16:50:09.686Z,101089.09
2022-10-13T16:52:37.577Z,101087.00
2022-10-13T16:55:06.069Z,101083.88
2022-10-13T16:57:33.012Z,101080.81
2022-10-13T17:00:00.441Z,101080.16
2022-10-13T17:02:27.229Z,101073.81
2022-10-13T17:04:54.211Z,101080.38
2022-10-13T17:07:21.388Z,101089.25
2022-10-13T17:09:48.500Z,101090.78
2022-10-13T17:12:15.738Z,101090.41
2022-10-13T17:14:42.561Z,101087.87
2022-10-13T17:17:09.423Z,101084.06
2022-10-13T17:19:36.569Z,101085.88
2022-10-13T17:22:03.712Z,101088.97
2022-10-13T17:24:30.769Z,101085.63
2022-10-13T17:26:57.660Z,101091.34
2022-10-13T17:29:24.565Z,101091.00
2022-10-13T17:31:51.469Z,101094.63
2022-10-13T17:34:18.380Z,101090.31
2022-10-13T17:36:45.253Z,101093.38
2022-10-13T17:39:12.429Z,101093.69
2022-10-13T17:41:39.991Z,101090.41
2022-10-13T17:44:06.796Z,101084.44
2022-10-13T17:46:38.760Z,101093.72
2022-10-13T17:52:19.192Z,101085.75
2022-10-13T18:02:16.614Z,101090.41
2022-10-13T18:05:05.823Z,101090.00
2022-10-13T18:07:45.913Z,101084.50
2022-10-13T18:10:15.118Z,101083.81
2022-10-13T18:12:42.205Z,101092.31
2022-10-13T18:15:09.403Z,101090.13
2022-10-13T18:17:36.219Z,101096.22
2022-10-13T18:20:03.371Z,101099.84
2022-10-13T18:22:30.259Z,101103.84
2022-10-13T18:24:57.402Z,101101.41
2022-10-13T18:27:24.270Z,101099.34
2022-10-13T18:29:51.099Z,101099.44
2022-10-13T18:32:17.993Z,101098.97
2022-10-13T18:34:44.855Z,101107.63
2022-10-13T18:37:11.658Z,101095.50
2022-10-13T18:39:39.025Z,101094.75
2022-10-13T18:42:05.890Z,101091.09
2022-10-13T18:44:32.676Z,101085.72
2022-10-13T18:46:59.522Z,101087.44
2022-10-13T18:49:33.117Z,101081.31
2022-10-13T18:52:01.081Z,101080.25
2022-10-13T18:54:28.958Z,101082.94
2022-10-13T18:56:55.911Z,101074.31
2022-10-13T18:59:23.034Z,101084.19
2022-10-13T19:01:50.256Z,101083.38
2022-10-13T19:04:17.110Z,101081.81
2022-10-13T19:06:44.358Z,101086.47
2022-10-13T19:09:13.665Z,101081.13
2022-10-13T19:11:41.736Z,101075.84
2022-10-13T19:14:11.325Z,101078.78
2022-10-13T19:16:40.367Z,101079.28
2022-10-13T19:19:09.211Z,101081.09
2022-10-13T19:21:37.127Z,101079.28
2022-10-13T19:24:04.138Z,101069.91
2022-10-13T19:26:33.166Z,101074.66
2022-10-13T19:29:06.118Z,101080.19
2022-10-13T19:31:34.309Z,101072.28
2022-10-13T19:34:01.534Z,101059.09
2022-10-13T19:36:31.724Z,101082.13
2022-10-13T19:38:59.232Z,101079.78
2022-10-13T19:41:28.306Z,101084.34
2022-10-13T19:43:55.636Z,101082.13
2022-10-13T19:46:22.503Z,101073.59
2022-10-13T19:48:49.521Z,101068.56
2022-10-13T19:51:16.383Z,101071.37
2022-10-13T19:53:43.437Z,101084.31
2022-10-13T19:56:28.263Z,101074.84
2022-10-13T19:58:55.063Z,101082.16
2022-10-13T20:01:22.723Z,101086.75
2022-10-13T20:03:49.533Z,101084.13
2022-10-13T20:06:17.265Z,101080.84
2022-10-13T20:08:45.072Z,101090.97
2022-10-13T20:11:23.340Z,101084.91
2022-10-13T20:13:51.037Z,101083.19
2022-10-13T20:16:20.533Z,101087.81
2022-10-13T20:18:52.250Z,101088.84
2022-10-13T20:21:19.037Z,101089.00
2022-10-13T20:23:45.784Z,101090.78
2022-10-13T20:26:13.103Z,101090.87
2022-10-13T20:28:44.421Z,101089.00
2022-10-13T20:31:12.913Z,101095.22
2022-10-13T20:33:40.459Z,101099.56
2022-10-13T20:36:10.499Z,101083.91
2022-10-13T20:38:37.364Z,101094.41
2022-10-13T20:41:09.024Z,101093.41
2022-10-13T20:43:37.193Z,101093.47
2022-10-13T20:46:06.882Z,101086.31
2022-10-13T20:48:51.446Z,101080.00
2022-10-13T20:51:23.545Z,101087.25
2022-10-13T20:53:50.688Z,101094.37
2022-10-13T20:56:20.388Z,101093.22
2022-10-13T20:58:47.898Z,101092.19
2022-10-13T21:01:15.020Z,101088.66
2022-10-13T21:03:42.019Z,101087.94
2022-10-13T21:06:11.489Z,101090.06
2022-10-13T21:08:38.849Z,101088.09
2022-10-13T21:11:11.254Z,101087.13
2022-10-13T21:13:39.151Z,101091.63
2022-10-13T21:16:10.333Z,101083.53
2022-10-13T21:18:37.292Z,101090.91
2022-10-13T21:21:05.390Z,101091.78
2022-10-13T21:23:32.442Z,101085.84
2022-10-13T21:26:04.240Z,101084.75
2022-10-13T21:28:31.803Z,101064.81
2022-10-13T21:31:12.391Z,101078.28
2022-10-13T21:33:40.134Z,101080.44
2022-10-13T21:36:08.368Z,101076.31
2022-10-13T21:38:35.427Z,101058.94
2022-10-13T21:41:06.723Z,101078.03
2022-10-13T21:43:34.107Z,101078.03
2022-10-13T21:46:15.058Z,101080.72
2022-10-13T21:48:42.077Z,101058.94
2022-10-13T21:51:20.270Z,101086.22
2022-10-13T21:53:51.376Z,101084.59
2022-10-13T21:56:18.989Z,101084.59
2022-10-13T21:58:46.249Z,101085.69
2022-10-13T22:01:13.410Z,101081.34
2022-10-13T22:03:41.628Z,101078.53
2022-10-13T22:06:18.273Z,101076.84
2022-10-13T22:08:46.725Z,101078.66
2022-10-13T22:11:13.982Z,101075.00
2022-10-13T22:13:41.087Z,101075.00
2022-10-13T22:16:17.976Z,101069.12
2022-10-13T22:18:45.246Z,101064.88
2022-10-13T22:21:20.502Z,101067.72
2022-10-13T22:23:47.595Z,101059.94
2022-10-13T22:26:16.029Z,101067.87
2022-10-13T22:28:42.959Z,101063.81
2022-10-13T22:31:12.522Z,101062.75
2022-10-13T22:33:40.861Z,101065.56
2022-10-13T22:36:18.532Z,101056.59
2022-10-13T22:38:46.356Z,101064.09
2022-10-13T22:41:14.745Z,101060.78
2022-10-13T22:43:46.719Z,101047.75
2022-10-13T22:46:18.630Z,101060.50
2022-10-13T22:48:45.821Z,101057.97
2022-10-13T22:51:15.015Z,101060.69
2022-10-13T22:53:41.815Z,101057.06
2022-10-13T22:56:10.368Z,101055.53
2022-10-13T22:58:37.160Z,101057.56
2022-10-13T23:01:14.851Z,101058.53
2022-10-13T23:03:42.213Z,101051.28
2022-10-13T23:06:13.155Z,101050.56
2022-10-13T23:08:39.920Z,101051.53
2022-10-13T23:11:06.806Z,101054.13
2022-10-13T23:13:33.629Z,101050.56
2022-10-13T23:16:03.551Z,101047.97
2022-10-13T23:18:30.361Z,101053.38
2022-10-13T23:20:58.204Z,101047.31
2022-10-13T23:23:25.026Z,101053.59
2022-10-13T23:25:51.838Z,101058.09
2022-10-13T23:28:18.611Z,101052.88
2022-10-13T23:30:45.466Z,101055.59
2022-10-13T23:33:12.374Z,101048.66
2022-10-13T23:35:39.261Z,101044.31
2022-10-13T23:38:06.071Z,101050.56
2022-10-13T23:40:33.837Z,101046.31
2022-10-13T23:43:00.560Z,101048.13
2022-10-13T23:45:27.372Z,101048.31
2022-10-13T23:47:54.357Z,101046.63
2022-10-13T23:50:21.152Z,101048.72
2022-10-13T23:52:47.958Z,101050.69
2022-10-13T23:55:14.815Z,101050.78
2022-10-13T23:57:41.651Z,101048.84
